createdAt,value
2023-01-17T00:00:51.862Z,98492.83
2023-01-17T00:03:24.038Z,98492.84
2023-01-17T00:06:10.969Z,98494.14
2023-01-17T00:08:57.745Z,98485.52
2023-01-17T00:11:25.870Z,98488.31
2023-01-17T00:13:56.246Z,98488.45
2023-01-17T00:16:24.382Z,98492.64
2023-01-17T00:19:11.191Z,98492.92
2023-01-17T00:21:58.356Z,98485.41
2023-01-17T00:24:47.433Z,98480.58
2023-01-17T00:27:15.616Z,98482.39
2023-01-17T00:29:43.711Z,98482.50
2023-01-17T00:32:11.847Z,98475.45
2023-01-17T00:34:39.922Z,98475.71
2023-01-17T00:37:08.176Z,98467.67
2023-01-17T00:39:39.012Z,98475.10
2023-01-17T00:42:07.059Z,98463.55
2023-01-17T00:44:53.976Z,98468.05
2023-01-17T00:47:40.846Z,98467.75
2023-01-17T00:50:28.325Z,98469.14
2023-01-17T00:53:15.205Z,98462.94
2023-01-17T00:56:02.077Z,98463.57
2023-01-17T00:58:48.979Z,98472.02
2023-01-17T01:01:35.983Z,98471.52
2023-01-17T01:04:25.636Z,98469.13
2023-01-17T01:07:12.613Z,98469.05
2023-01-17T01:09:59.568Z,98477.42
2023-01-17T01:12:47.652Z,98478.85
2023-01-17T01:15:34.630Z,98479.94
2023-01-17T01:18:29.149Z,98473.67
2023-01-17T01:21:21.551Z,98466.29
2023-01-17T01:24:08.548Z,98460.35
2023-01-17T01:26:55.594Z,98463.73
2023-01-17T01:29:42.582Z,98467.29
2023-01-17T01:32:29.468Z,98467.20
2023-01-17T01:34:57.715Z,98470.10
2023-01-17T01:37:25.878Z,98463.70
2023-01-17T01:39:54.053Z,98460.39
2023-01-17T01:42:22.228Z,98460.31
2023-01-17T01:44:53.394Z,98466.02
2023-01-17T01:47:37.676Z,98461.06
2023-01-17T01:50:08.798Z,98464.05
2023-01-17T01:52:51.330Z,98462.41
2023-01-17T01:55:24.593Z,98469.72
2023-01-17T01:57:58.476Z,98475.77
2023-01-17T02:00:31.290Z,98469.31
2023-01-17T02:03:05.364Z,98466.59
2023-01-17T02:05:35.630Z,98459.71
2023-01-17T02:08:08.108Z,98454.24
2023-01-17T02:10:41.093Z,98446.62
2023-01-17T02:13:10.703Z,98444.35
2023-01-17T02:15:51.591Z,98436.50
2023-01-17T02:19:05.915Z,98433.11
2023-01-17T02:21:51.903Z,98432.11
2023-01-17T02:24:38.364Z,98425.08
2023-01-17T02:27:29.142Z,98425.23
2023-01-17T02:30:25.571Z,98424.27
2023-01-17T02:33:24.701Z,98419.48
2023-01-17T02:36:10.705Z,98424.23
2023-01-17T02:39:08.086Z,98427.33
2023-01-17T02:41:41.666Z,98426.60
2023-01-17T02:44:11.482Z,98421.91
2023-01-17T02:46:48.333Z,98422.30
2023-01-17T02:49:20.679Z,98418.48
2023-01-17T02:52:20.299Z,98413.60
2023-01-17T02:55:11.798Z,98404.35
2023-01-17T02:58:05.495Z,98403.85
2023-01-17T03:00:36.534Z,98407.13
2023-01-17T03:03:41.861Z,98402.90
2023-01-17T03:06:17.513Z,98401.63
2023-01-17T03:08:48.616Z,98402.77
2023-01-17T03:11:16.784Z,98406.64
2023-01-17T03:13:45.058Z,98409.20
2023-01-17T03:16:21.342Z,98414.16
2023-01-17T03:18:49.636Z,98408.27
2023-01-17T03:21:17.886Z,98410.91
2023-01-17T03:23:46.098Z,98409.99
2023-01-17T03:26:14.641Z,98401.71
2023-01-17T03:28:42.865Z,98400.17
2023-01-17T03:31:15.844Z,98394.66
2023-01-17T03:33:44.226Z,98397.95
2023-01-17T03:36:12.600Z,98406.34
2023-01-17T03:38:43.239Z,98408.91
2023-01-17T03:41:11.451Z,98412.12
2023-01-17T03:43:42.235Z,98408.64
2023-01-17T03:46:40.652Z,98407.98
2023-01-17T03:49:11.400Z,98412.39
2023-01-17T03:51:39.613Z,98411.67
2023-01-17T03:54:08.027Z,98411.23
2023-01-17T03:56:36.234Z,98401.31
2023-01-17T03:59:04.427Z,98394.58
2023-01-17T04:01:32.741Z,98382.44
2023-01-17T04:04:01.211Z,98375.70
2023-01-17T04:06:30.036Z,98376.30
2023-01-17T04:08:58.172Z,98379.46
2023-01-17T04:11:26.353Z,98382.46
2023-01-17T04:13:55.531Z,98397.98
2023-01-17T04:16:29.462Z,98402.19
2023-01-17T04:18:57.930Z,98408.77
2023-01-17T04:21:26.169Z,98404.10
2023-01-17T04:23:54.389Z,98400.94
2023-01-17T04:26:22.558Z,98408.52
2023-01-17T04:28:50.720Z,98412.52
2023-01-17T04:31:18.941Z,98414.63
2023-01-17T04:33:47.211Z,98419.39
2023-01-17T04:36:18.258Z,98420.58
2023-01-17T04:38:46.520Z,98419.89
2023-01-17T04:41:14.647Z,98418.09
2023-01-17T04:43:42.826Z,98421.74
2023-01-17T04:46:11.405Z,98422.70
2023-01-17T04:48:39.552Z,98414.89
2023-01-17T04:51:10.446Z,98409.64
2023-01-17T04:53:38.880Z,98416.16
2023-01-17T04:56:07.515Z,98407.80
2023-01-17T04:58:35.683Z,98405.90
2023-01-17T05:01:05.608Z,98407.21
2023-01-17T05:03:34.862Z,98409.23
2023-01-17T05:06:03.535Z,98419.90
2023-01-17T05:08:31.863Z,98425.10
2023-01-17T05:11:00.197Z,98432.29
2023-01-17T05:13:28.332Z,98429.20
2023-01-17T05:15:58.295Z,98426.98
2023-01-17T05:18:26.616Z,98427.67
2023-01-17T05:21:02.214Z,98422.56
2023-01-17T05:23:33.305Z,98421.06
2023-01-17T05:26:01.554Z,98438.20
2023-01-17T05:28:29.699Z,98446.27
2023-01-17T05:30:59.953Z,98448.73
2023-01-17T05:33:28.345Z,98448.14
2023-01-17T05:35:56.897Z,98445.28
2023-01-17T05:38:25.076Z,98438.83
2023-01-17T05:40:53.356Z,98438.61
2023-01-17T05:43:22.981Z,98429.88
2023-01-17T05:45:53.098Z,98430.39
2023-01-17T05:48:21.421Z,98433.56
2023-01-17T05:50:52.428Z,98435.90
2023-01-17T05:53:20.734Z,98424.57
2023-01-17T05:55:49.914Z,98434.75
2023-01-17T05:58:20.995Z,98422.52
2023-01-17T06:00:55.145Z,98398.96
2023-01-17T06:03:23.338Z,98404.59
2023-01-17T06:05:53.574Z,98400.17
2023-01-17T06:08:23.655Z,98415.55
2023-01-17T06:10:54.532Z,98403.25
2023-01-17T06:13:23.347Z,98385.11
2023-01-17T06:15:51.562Z,98379.23
2023-01-17T06:18:19.991Z,98392.08
2023-01-17T06:20:54.508Z,98399.17
2023-01-17T06:23:23.928Z,98394.36
2023-01-17T06:25:53.001Z,98406.81
2023-01-17T06:28:24.624Z,98408.23
2023-01-17T06:30:52.953Z,98393.66
2023-01-17T06:33:22.127Z,98388.67
2023-01-17T06:35:52.052Z,98392.38
2023-01-17T06:38:21.143Z,98394.39
2023-01-17T06:40:49.355Z,98407.34
2023-01-17T06:43:17.635Z,98406.16
2023-01-17T06:45:45.725Z,98404.39
2023-01-17T06:48:14.078Z,98404.05
2023-01-17T06:50:42.450Z,98399.25
2023-01-17T06:53:10.749Z,98391.16
2023-01-17T06:55:40.554Z,98397.80
2023-01-17T06:58:09.915Z,98391.85
2023-01-17T07:00:40.580Z,98379.20
2023-01-17T07:03:24.666Z,98383.02
2023-01-17T07:05:53.338Z,98384.61
2023-01-17T07:08:21.645Z,98380.14
2023-01-17T07:10:49.894Z,98382.73
2023-01-17T07:13:18.093Z,98383.83
2023-01-17T07:15:46.217Z,98380.08
2023-01-17T07:18:14.928Z,98373.23
2023-01-17T07:20:44.120Z,98370.76
2023-01-17T07:23:13.164Z,98367.17
2023-01-17T07:25:41.439Z,98362.60
2023-01-17T07:28:09.798Z,98358.83
2023-01-17T07:30:37.979Z,98352.77
2023-01-17T07:33:06.238Z,98351.99
2023-01-17T07:35:34.451Z,98350.86
2023-01-17T07:38:03.345Z,98360.58
2023-01-17T07:40:38.693Z,98360.42
2023-01-17T07:43:16.869Z,98358.30
2023-01-17T07:45:50.873Z,98359.70
2023-01-17T07:48:19.929Z,98354.27
2023-01-17T07:50:56.179Z,98354.91
2023-01-17T07:53:26.401Z,98358.00
2023-01-17T07:56:02.920Z,98355.88
2023-01-17T07:58:31.837Z,98361.50
2023-01-17T08:01:07.566Z,98363.66
2023-01-17T08:03:40.301Z,98361.91
2023-01-17T08:06:22.325Z,98374.98
2023-01-17T08:08:51.119Z,98357.52
2023-01-17T08:11:21.752Z,98364.90
2023-01-17T08:13:50.210Z,98361.47
2023-01-17T08:16:18.354Z,98352.33
2023-01-17T08:18:46.519Z,98347.39
2023-01-17T08:21:17.023Z,98344.05
2023-01-17T08:23:51.726Z,98343.80
2023-01-17T08:26:22.582Z,98345.69
2023-01-17T08:29:01.399Z,98349.42
2023-01-17T08:31:35.233Z,98356.08
2023-01-17T08:34:05.743Z,98353.93
2023-01-17T08:36:34.196Z,98350.78
2023-01-17T08:39:02.403Z,98347.70
2023-01-17T08:41:32.416Z,98339.67
2023-01-17T08:44:00.868Z,98333.36
2023-01-17T08:46:30.015Z,98330.77
2023-01-17T08:49:03.021Z,98318.39
2023-01-17T08:51:32.694Z,98304.78
2023-01-17T08:54:00.827Z,98290.62
2023-01-17T08:56:29.080Z,98290.98
2023-01-17T08:58:57.221Z,98297.19
2023-01-17T09:01:25.530Z,98289.18
2023-01-17T09:03:54.235Z,98304.70
2023-01-17T09:06:22.487Z,98311.77
2023-01-17T09:08:52.561Z,98296.89
2023-01-17T09:11:20.717Z,98294.83
2023-01-17T09:13:49.493Z,98295.72
2023-01-17T09:16:17.905Z,98293.48
2023-01-17T09:18:46.112Z,98296.48
2023-01-17T09:21:17.992Z,98293.01
2023-01-17T09:23:48.472Z,98285.88
2023-01-17T09:26:21.408Z,98283.60
2023-01-17T09:28:50.391Z,98288.33
2023-01-17T09:31:23.411Z,98296.27
2023-01-17T09:33:52.365Z,98294.35
2023-01-17T09:36:22.466Z,98290.39
2023-01-17T09:38:55.647Z,98292.36
2023-01-17T09:41:28.875Z,98286.98
2023-01-17T09:44:06.913Z,98283.10
2023-01-17T09:46:41.540Z,98293.73
2023-01-17T09:49:34.885Z,98286.10
2023-01-17T09:52:03.883Z,98268.16
2023-01-17T09:54:40.303Z,98265.77
2023-01-17T09:57:15.965Z,98264.44
2023-01-17T10:00:14.483Z,98261.91
2023-01-17T10:02:46.064Z,98272.88
2023-01-17T10:05:33.307Z,98274.36
2023-01-17T10:08:30.699Z,98273.60
2023-01-17T10:11:35.066Z,98263.55
2023-01-17T10:14:35.719Z,98273.88
2023-01-17T10:17:22.233Z,98273.33
2023-01-17T10:20:12.615Z,98261.44
2023-01-17T10:22:56.146Z,98269.67
2023-01-17T10:25:38.984Z,98259.69
2023-01-17T10:28:17.625Z,98249.02
2023-01-17T10:30:50.261Z,98251.20
2023-01-17T10:33:28.993Z,98248.61
2023-01-17T10:36:07.012Z,98245.69
2023-01-17T10:38:37.995Z,98251.25
2023-01-17T10:41:27.815Z,98255.43
2023-01-17T10:44:00.741Z,98258.06
2023-01-17T10:46:57.898Z,98253.20
2023-01-17T10:49:28.587Z,98247.20
2023-01-17T10:52:29.440Z,98249.73
2023-01-17T10:55:26.657Z,98245.20
2023-01-17T10:57:55.190Z,98239.89
2023-01-17T11:00:52.064Z,98241.45
2023-01-17T11:03:24.848Z,98241.73
2023-01-17T11:06:20.113Z,98242.27
2023-01-17T11:08:56.992Z,98233.66
2023-01-17T11:11:32.198Z,98234.77
2023-01-17T11:14:21.231Z,98225.59
2023-01-17T11:17:01.592Z,98219.88
2023-01-17T11:19:36.211Z,98223.92
2023-01-17T11:22:07.491Z,98220.01
2023-01-17T11:24:40.853Z,98226.71
2023-01-17T11:27:24.706Z,98223.45
2023-01-17T11:30:18.193Z,98231.90
2023-01-17T11:33:09.531Z,98224.81
2023-01-17T11:35:45.332Z,98229.58
2023-01-17T11:38:22.545Z,98239.49
2023-01-17T11:40:54.148Z,98243.09
2023-01-17T11:43:26.121Z,98242.23
2023-01-17T11:46:15.924Z,98240.02
2023-01-17T11:48:56.142Z,98238.41
2023-01-17T11:51:26.058Z,98238.02
2023-01-17T11:54:03.789Z,98240.80
2023-01-17T11:56:40.955Z,98249.42
2023-01-17T11:59:25.144Z,98247.80
2023-01-17T12:02:32.000Z,98254.54
2023-01-17T12:05:19.284Z,98258.63
2023-01-17T12:07:56.409Z,98261.23
2023-01-17T12:10:48.172Z,98268.61
2023-01-17T12:13:55.803Z,98278.27
2023-01-17T12:16:40.328Z,98269.48
2023-01-17T12:19:46.885Z,98271.24
2023-01-17T12:22:27.431Z,98284.20
2023-01-17T12:25:06.482Z,98286.25
2023-01-17T12:28:05.966Z,98290.95
2023-01-17T12:31:08.549Z,98291.41
2023-01-17T12:33:43.922Z,98289.98
2023-01-17T12:36:31.258Z,98287.35
2023-01-17T12:39:03.867Z,98290.91
2023-01-17T12:41:39.288Z,98289.73
2023-01-17T12:44:14.053Z,98292.02
2023-01-17T12:47:01.133Z,98299.05
2023-01-17T12:49:35.755Z,98298.30
2023-01-17T12:52:13.110Z,98290.50
2023-01-17T12:54:52.658Z,98291.49
2023-01-17T12:57:32.131Z,98291.00
2023-01-17T13:00:12.345Z,98286.85
2023-01-17T13:02:49.737Z,98282.14
2023-01-17T13:05:29.917Z,98273.60
2023-01-17T13:08:04.211Z,98272.98
2023-01-17T13:10:38.383Z,98264.95
2023-01-17T13:13:22.766Z,98262.80
2023-01-17T13:15:55.381Z,98263.19
2023-01-17T13:18:30.038Z,98262.98
2023-01-17T13:21:30.472Z,98265.48
2023-01-17T13:24:06.067Z,98270.52
2023-01-17T13:27:17.323Z,98266.68
2023-01-17T13:30:24.477Z,98265.02
2023-01-17T13:32:58.398Z,98248.91
2023-01-17T13:35:44.528Z,98264.71
2023-01-17T13:38:40.568Z,98278.73
2023-01-17T13:41:32.865Z,98268.40
2023-01-17T13:44:22.424Z,98274.28
2023-01-17T13:47:04.663Z,98279.29
2023-01-17T13:49:36.087Z,98278.74
2023-01-17T13:52:12.731Z,98275.27
2023-01-17T13:54:46.019Z,98275.55
2023-01-17T13:57:23.488Z,98272.33
2023-01-17T14:00:23.352Z,98281.52
2023-01-17T14:02:55.367Z,98290.33
2023-01-17T14:05:38.953Z,98287.10
2023-01-17T14:08:14.392Z,98287.52
2023-01-17T14:10:49.056Z,98289.35
2023-01-17T14:13:38.618Z,98292.27
2023-01-17T14:16:22.490Z,98295.71
2023-01-17T14:18:50.916Z,98303.09
2023-01-17T14:21:35.728Z,98306.83
2023-01-17T14:24:13.337Z,98307.80
2023-01-17T14:26:46.478Z,98306.14
2023-01-17T14:29:46.135Z,98304.45
2023-01-17T14:32:27.270Z,98297.69
2023-01-17T14:34:57.408Z,98292.68
2023-01-17T14:37:51.221Z,98298.32
2023-01-17T14:40:30.854Z,98304.52
2023-01-17T14:43:04.647Z,98317.59
2023-01-17T14:45:36.758Z,98324.55
2023-01-17T14:48:07.469Z,98330.52
2023-01-17T14:50:40.725Z,98334.51
2023-01-17T14:53:12.108Z,98332.02
2023-01-17T14:55:49.346Z,98321.83
2023-01-17T14:58:19.671Z,98326.35
2023-01-17T15:00:50.368Z,98339.45
2023-01-17T15:03:18.667Z,98330.82
2023-01-17T15:05:50.561Z,98335.19
2023-01-17T15:08:21.588Z,98343.36
2023-01-17T15:10:57.307Z,98344.60
2023-01-17T15:13:43.914Z,98348.50
2023-01-17T15:16:25.061Z,98358.77
2023-01-17T15:18:57.523Z,98364.09
2023-01-17T15:21:42.703Z,98361.57
2023-01-17T15:24:22.112Z,98370.40
2023-01-17T15:26:50.567Z,98381.42
2023-01-17T15:29:28.489Z,98395.89
2023-01-17T15:31:59.228Z,98403.02
2023-01-17T15:34:39.079Z,98412.95
2023-01-17T15:37:22.664Z,98425.00
2023-01-17T15:39:51.285Z,98420.60
2023-01-17T15:42:31.602Z,98424.20
2023-01-17T15:45:15.802Z,98423.96
2023-01-17T15:47:54.295Z,98409.27
2023-01-17T15:50:30.904Z,98401.55
2023-01-17T15:53:06.187Z,98406.31
2023-01-17T15:55:37.248Z,98423.17
2023-01-17T15:58:23.266Z,98433.90
2023-01-17T16:00:51.823Z,98432.70
2023-01-17T16:03:20.034Z,98431.00
2023-01-17T16:05:50.070Z,98432.13
2023-01-17T16:08:29.582Z,98441.38
2023-01-17T16:11:02.586Z,98439.27
2023-01-17T16:13:43.578Z,98436.70
2023-01-17T16:16:15.016Z,98433.29
2023-01-17T16:18:44.016Z,98436.00
2023-01-17T16:21:18.920Z,98440.80
2023-01-17T16:23:47.808Z,98459.09
2023-01-17T16:26:17.589Z,98464.71
2023-01-17T16:28:48.823Z,98459.98
2023-01-17T16:31:18.148Z,98449.80
2023-01-17T16:33:49.073Z,98461.16
2023-01-17T16:36:17.867Z,98462.02
2023-01-17T16:38:51.578Z,98468.65
2023-01-17T16:41:20.657Z,98466.37
2023-01-17T16:44:02.129Z,98474.04
2023-01-17T16:46:30.587Z,98479.36
2023-01-17T16:49:02.130Z,98486.61
2023-01-17T16:51:31.213Z,98496.75
2023-01-17T16:54:00.917Z,98502.41
2023-01-17T16:56:29.243Z,98502.04
2023-01-17T16:58:59.018Z,98507.73
2023-01-17T17:01:27.379Z,98511.64
2023-01-17T17:03:55.719Z,98510.30
2023-01-17T17:06:23.933Z,98503.80
2023-01-17T17:08:52.253Z,98501.31
2023-01-17T17:11:23.462Z,98506.78
2023-01-17T17:13:52.396Z,98507.34
2023-01-17T17:16:24.171Z,98506.80
2023-01-17T17:19:00.407Z,98504.20
2023-01-17T17:21:29.592Z,98506.97
2023-01-17T17:24:01.471Z,98499.98
2023-01-17T17:26:36.601Z,98493.41
2023-01-17T17:29:05.845Z,98501.83
2023-01-17T17:31:34.204Z,98509.50
2023-01-17T17:34:07.507Z,98506.30
2023-01-17T17:36:36.528Z,98500.59
2023-01-17T17:39:09.308Z,98493.20
2023-01-17T17:41:40.807Z,98496.14
2023-01-17T17:44:12.313Z,98504.51
2023-01-17T17:46:42.333Z,98503.85
2023-01-17T17:49:12.981Z,98503.77
2023-01-17T17:51:41.167Z,98501.80
2023-01-17T17:54:14.137Z,98499.44
2023-01-17T17:56:46.661Z,98502.16
2023-01-17T17:59:18.487Z,98511.27
2023-01-17T18:01:47.090Z,98516.77
2023-01-17T18:04:17.534Z,98531.17
2023-01-17T18:06:46.231Z,98547.71
2023-01-17T18:09:14.584Z,98549.60
2023-01-17T18:11:44.386Z,98535.41
2023-01-17T18:14:14.769Z,98516.65
2023-01-17T18:16:45.247Z,98494.67
2023-01-17T18:19:16.999Z,98489.48
2023-01-17T18:21:45.643Z,98496.98
2023-01-17T18:24:20.144Z,98497.58
2023-01-17T18:26:53.618Z,98491.48
2023-01-17T18:29:25.620Z,98495.33
2023-01-17T18:31:55.354Z,98502.64
2023-01-17T18:34:28.662Z,98499.07
2023-01-17T18:36:57.937Z,98512.23
2023-01-17T18:39:28.911Z,98515.80
2023-01-17T18:41:57.550Z,98513.04
2023-01-17T18:44:27.475Z,98513.75
2023-01-17T18:46:58.277Z,98517.27
2023-01-17T18:49:26.489Z,98513.17
2023-01-17T18:51:57.351Z,98518.41
2023-01-17T18:54:28.067Z,98518.76
2023-01-17T18:56:56.848Z,98516.08
2023-01-17T18:59:25.949Z,98517.66
2023-01-17T19:01:54.312Z,98522.15
2023-01-17T19:04:22.697Z,98523.84
2023-01-17T19:06:51.447Z,98522.36
2023-01-17T19:09:19.718Z,98523.29
2023-01-17T19:11:47.938Z,78816.20
2023-01-17T19:14:16.391Z,-1.00
2023-01-17T19:16:45.141Z,-1.00
2023-01-17T19:19:16.070Z,-1.00
2023-01-17T19:21:48.364Z,-1.00
2023-01-17T19:24:18.236Z,-1.00
2023-01-17T19:26:47.902Z,-1.00
2023-01-17T19:29:27.026Z,-1.00
2023-01-17T19:31:55.239Z,-1.00
2023-01-17T19:34:26.087Z,-1.00
2023-01-17T19:36:55.745Z,-1.00
2023-01-17T19:39:26.355Z,-1.00
2023-01-17T19:41:54.571Z,-1.00
2023-01-17T19:44:22.803Z,-1.00
2023-01-17T19:46:50.999Z,-1.00
2023-01-17T19:49:24.912Z,-1.00
2023-01-17T19:51:53.163Z,-1.00
2023-01-17T19:54:21.472Z,-1.00
2023-01-17T19:56:49.579Z,-1.00
2023-01-17T19:59:20.435Z,-1.00
2023-01-17T20:02:02.752Z,-1.00
2023-01-17T20:04:31.071Z,-1.00
2023-01-17T20:06:59.267Z,-1.00
2023-01-17T20:09:27.459Z,-1.00
2023-01-17T20:11:58.421Z,-1.00
2023-01-17T20:14:27.032Z,-1.00
2023-01-17T20:16:55.269Z,-1.00
2023-01-17T20:19:25.453Z,-1.00
2023-01-17T20:21:55.548Z,-1.00
2023-01-17T20:24:24.421Z,-1.00
2023-01-17T20:26:52.868Z,-1.00
2023-01-17T20:29:21.015Z,-1.00
2023-01-17T20:31:52.771Z,-1.00
2023-01-17T20:34:21.673Z,-1.00
2023-01-17T20:36:49.968Z,-1.00
2023-01-17T20:39:19.825Z,-1.00
2023-01-17T20:41:49.977Z,-1.00
2023-01-17T20:44:19.875Z,-1.00
2023-01-17T20:46:48.425Z,-1.00
2023-01-17T20:49:19.499Z,-1.00
2023-01-17T20:51:49.323Z,-1.00
2023-01-17T20:54:18.737Z,-1.00
2023-01-17T20:56:47.980Z,-1.00
2023-01-17T20:59:21.764Z,-1.00
2023-01-17T21:01:54.378Z,-1.00
2023-01-17T21:04:26.163Z,-1.00
2023-01-17T21:06:55.537Z,-1.00
2023-01-17T21:09:23.811Z,-1.00
2023-01-17T21:11:52.681Z,-1.00
2023-01-17T21:14:21.885Z,-1.00
2023-01-17T21:16:50.658Z,-1.00
2023-01-17T21:19:21.403Z,-1.00
2023-01-17T21:21:50.333Z,-1.00
2023-01-17T21:24:19.810Z,-1.00
2023-01-17T21:26:49.806Z,-1.00
2023-01-17T21:29:18.069Z,-1.00
2023-01-17T21:31:50.370Z,-1.00
2023-01-17T21:34:18.538Z,-1.00
2023-01-17T21:36:46.857Z,-1.00
2023-01-17T21:39:20.086Z,-1.00
2023-01-17T21:41:51.005Z,-1.00
2023-01-17T21:44:23.180Z,-1.00
2023-01-17T21:46:56.478Z,-1.00
2023-01-17T21:49:24.872Z,-1.00
2023-01-17T21:51:53.095Z,-1.00
2023-01-17T21:54:44.516Z,-1.00
2023-01-17T21:57:34.662Z,-1.00
2023-01-17T22:00:06.608Z,-1.00
2023-01-17T22:02:41.186Z,-1.00
2023-01-17T22:05:18.238Z,-1.00
2023-01-17T22:08:11.521Z,-1.00
2023-01-17T22:10:46.676Z,-1.00
2023-01-17T22:13:17.669Z,-1.00
2023-01-17T22:15:46.339Z,-1.00
2023-01-17T22:18:15.494Z,-1.00
2023-01-17T22:20:43.756Z,-1.00
2023-01-17T22:23:12.191Z,-1.00
2023-01-17T22:25:40.555Z,-1.00
2023-01-17T22:28:08.762Z,-1.00
2023-01-17T22:30:38.447Z,-1.00
2023-01-17T22:33:06.692Z,-1.00
2023-01-17T22:35:34.891Z,-1.00
2023-01-17T22:38:03.103Z,-1.00
2023-01-17T22:40:32.859Z,-1.00
2023-01-17T22:43:01.053Z,-1.00
2023-01-17T22:45:29.268Z,-1.00
2023-01-17T22:48:00.112Z,-1.00
2023-01-17T22:50:28.261Z,-1.00
2023-01-17T22:52:56.665Z,-1.00
2023-01-17T22:55:25.140Z,-1.00
2023-01-17T22:57:53.446Z,-1.00
2023-01-17T23:00:21.770Z,-1.00
2023-01-17T23:02:49.944Z,-1.00
2023-01-17T23:05:18.213Z,-1.00
2023-01-17T23:07:50.061Z,-1.00
2023-01-17T23:10:38.245Z,-1.00
2023-01-17T23:13:10.060Z,-1.00
2023-01-17T23:15:57.524Z,-1.00
2023-01-17T23:18:45.611Z,-1.00
2023-01-17T23:21:13.785Z,-1.00
2023-01-17T23:23:42.002Z,-1.00
2023-01-17T23:26:10.166Z,-1.00
2023-01-17T23:28:38.357Z,-1.00
2023-01-17T23:31:08.921Z,-1.00
2023-01-17T23:33:37.152Z,-1.00
2023-01-17T23:36:09.440Z,-1.00
2023-01-17T23:38:40.878Z,-1.00
2023-01-17T23:41:30.362Z,-1.00
2023-01-17T23:43:59.199Z,-1.00
2023-01-17T23:46:30.479Z,-1.00
2023-01-17T23:48:58.824Z,-1.00
2023-01-17T23:51:27.040Z,-1.00
2023-01-17T23:54:05.589Z,-1.00
2023-01-17T23:56:33.909Z,-1.00
2023-01-17T23:59:02.208Z,-1.00
